createdAt,value
2023-03-24T00:02:37.691Z,6.10
2023-03-24T00:07:41.602Z,6.20
2023-03-24T00:12:46.388Z,5.60
2023-03-24T00:17:52.819Z,6.20
2023-03-24T00:22:59.373Z,5.30
2023-03-24T00:28:01.886Z,5.20
2023-03-24T00:33:04.298Z,4.90
2023-03-24T00:38:06.194Z,5.20
2023-03-24T00:43:09.389Z,4.30
2023-03-24T00:48:15.176Z,5.40
2023-03-24T00:53:19.231Z,4.70
2023-03-24T00:58:21.814Z,4.70
2023-03-24T01:03:28.191Z,4.50
2023-03-24T01:08:30.000Z,4.20
2023-03-24T01:13:32.065Z,5.00
2023-03-24T01:18:35.101Z,5.50
2023-03-24T01:23:38.317Z,4.00
2023-03-24T01:28:41.154Z,3.60
2023-03-24T01:33:43.048Z,3.00
2023-03-24T01:38:45.601Z,3.50
2023-03-24T01:43:47.774Z,3.40
2023-03-24T01:49:03.150Z,5.10
2023-03-24T01:54:08.444Z,6.80
2023-03-24T01:59:15.056Z,5.40
2023-03-24T02:04:40.390Z,4.20
2023-03-24T02:09:42.914Z,3.50
2023-03-24T02:14:44.934Z,4.00
2023-03-24T02:19:58.737Z,4.30
2023-03-24T02:25:41.694Z,4.00
2023-03-24T02:31:05.021Z,4.10
2023-03-24T02:36:21.884Z,4.50
2023-03-24T02:41:40.972Z,5.20
2023-03-24T02:46:48.443Z,5.30
2023-03-24T02:51:53.326Z,5.20
2023-03-24T02:57:09.840Z,5.50
2023-03-24T03:02:41.759Z,5.60
2023-03-24T03:07:47.045Z,5.60
2023-03-24T03:12:53.069Z,6.50
2023-03-24T03:18:18.817Z,6.70
2023-03-24T03:23:28.425Z,6.90
2023-03-24T03:28:33.047Z,42.90
2023-03-24T03:33:49.944Z,19.10
2023-03-24T03:39:00.378Z,12.70
2023-03-24T03:44:02.403Z,14.60
2023-03-24T03:49:07.728Z,11.60
2023-03-24T03:54:13.574Z,10.70
2023-03-24T03:59:42.457Z,12.30
2023-03-24T04:05:05.717Z,12.50
2023-03-24T04:10:36.245Z,12.00
2023-03-24T04:15:45.661Z,11.10
2023-03-24T04:21:28.574Z,13.20
2023-03-24T04:26:54.777Z,13.80
2023-03-24T04:32:30.552Z,13.70
2023-03-24T04:37:38.099Z,15.90
2023-03-24T04:42:52.726Z,25.00
2023-03-24T04:47:59.663Z,17.00
2023-03-24T04:53:16.349Z,17.80
2023-03-24T04:58:20.389Z,17.80
2023-03-24T05:06:28.384Z,17.80
2023-03-24T05:11:30.319Z,17.90
2023-03-24T05:16:38.050Z,16.70
2023-03-24T05:21:40.195Z,16.90
2023-03-24T05:26:42.284Z,17.00
2023-03-24T05:31:49.294Z,17.50
2023-03-24T05:36:53.054Z,17.60
2023-03-24T05:41:56.654Z,16.30
2023-03-24T05:46:58.370Z,16.60
2023-03-24T05:52:01.846Z,17.80
2023-03-24T05:57:04.514Z,18.50
2023-03-24T06:02:17.562Z,18.30
2023-03-24T06:07:34.324Z,18.70
2023-03-24T06:12:36.190Z,20.30
2023-03-24T06:17:38.500Z,18.30
2023-03-24T06:22:47.616Z,18.00
2023-03-24T06:27:52.082Z,17.80
2023-03-24T06:32:57.398Z,18.10
2023-03-24T06:37:59.337Z,18.00
2023-03-24T06:43:01.603Z,17.30
2023-03-24T06:48:04.429Z,17.20
2023-03-24T06:53:06.767Z,17.40
2023-03-24T06:58:11.013Z,17.60
2023-03-24T07:03:48.564Z,19.00
2023-03-24T07:14:11.941Z,17.70
2023-03-24T07:19:14.584Z,15.30
2023-03-24T07:24:19.697Z,17.20
2023-03-24T07:29:32.419Z,15.20
2023-03-24T07:34:51.608Z,15.10
2023-03-24T07:39:54.528Z,13.90
2023-03-24T07:44:56.498Z,11.20
2023-03-24T07:49:59.359Z,12.70
2023-03-24T07:55:01.088Z,10.70
2023-03-24T08:00:20.522Z,10.40
2023-03-24T08:05:37.473Z,9.50
2023-03-24T08:11:05.604Z,11.40
2023-03-24T08:16:07.916Z,7.60
2023-03-24T08:21:09.634Z,7.50
2023-03-24T08:26:11.988Z,6.40
2023-03-24T08:31:13.817Z,6.60
2023-03-24T08:36:16.881Z,5.40
2023-03-24T08:41:18.853Z,6.20
2023-03-24T08:46:21.091Z,8.50
2023-03-24T08:51:23.575Z,5.30
2023-03-24T08:56:25.997Z,5.50
2023-03-24T09:01:28.455Z,5.30
2023-03-24T09:06:30.425Z,4.60
2023-03-24T09:11:32.095Z,4.60
2023-03-24T09:16:34.715Z,5.00
2023-03-24T09:21:38.529Z,4.10
2023-03-24T09:26:41.179Z,3.40
2023-03-24T09:31:42.917Z,3.90
2023-03-24T09:36:44.704Z,3.40
2023-03-24T09:41:47.880Z,3.60
2023-03-24T09:46:57.545Z,3.70
2023-03-24T09:52:06.371Z,3.90
2023-03-24T09:57:38.908Z,9.10
2023-03-24T10:02:40.910Z,4.80
2023-03-24T10:07:49.125Z,5.60
2023-03-24T10:12:51.037Z,5.70
2023-03-24T10:18:11.083Z,5.80
2023-03-24T10:23:43.973Z,5.70
2023-03-24T10:28:52.559Z,5.20
2023-03-24T10:33:54.776Z,6.60
2023-03-24T10:38:58.729Z,7.30
2023-03-24T10:44:02.487Z,6.40
2023-03-24T10:49:31.297Z,8.90
2023-03-24T10:54:33.153Z,6.80
2023-03-24T10:59:39.766Z,6.30
2023-03-24T11:04:48.576Z,6.80
2023-03-24T11:10:07.552Z,10.00
2023-03-24T11:15:24.086Z,9.30
2023-03-24T11:20:32.408Z,6.90
2023-03-24T11:25:39.051Z,13.40
2023-03-24T11:31:08.079Z,6.30
2023-03-24T11:36:34.979Z,7.90
2023-03-24T11:41:39.323Z,8.60
2023-03-24T11:46:43.534Z,7.00
2023-03-24T11:51:49.393Z,8.00
2023-03-24T11:56:59.130Z,10.20
2023-03-24T12:02:12.079Z,8.40
2023-03-24T12:07:35.696Z,11.30
2023-03-24T12:12:59.712Z,8.30
2023-03-24T12:18:27.705Z,10.90
2023-03-24T12:23:36.215Z,10.80
2023-03-24T12:29:09.213Z,9.80
2023-03-24T12:34:46.278Z,12.70
2023-03-24T12:40:00.084Z,10.70
2023-03-24T12:45:22.368Z,10.10
2023-03-24T12:50:52.393Z,12.50
2023-03-24T12:56:21.803Z,11.60
2023-03-24T13:01:38.982Z,10.30
2023-03-24T13:07:12.023Z,10.10
2023-03-24T13:12:19.778Z,15.90
2023-03-24T13:17:28.512Z,12.00
2023-03-24T13:22:32.033Z,10.50
2023-03-24T13:27:41.542Z,9.70
2023-03-24T13:32:52.358Z,8.20
2023-03-24T13:38:01.114Z,7.40
2023-03-24T13:43:17.885Z,5.00
2023-03-24T13:48:29.463Z,4.80
2023-03-24T13:53:44.212Z,4.70
2023-03-24T13:58:47.998Z,4.50
2023-03-24T14:04:14.849Z,4.90
2023-03-24T14:09:21.588Z,5.90
2023-03-24T14:14:26.006Z,5.50
2023-03-24T14:20:02.578Z,5.20
2023-03-24T14:25:20.139Z,4.40
2023-03-24T14:30:30.661Z,5.50
2023-03-24T14:35:46.819Z,6.30
2023-03-24T14:40:56.637Z,4.40
2023-03-24T14:46:02.390Z,4.40
2023-03-24T14:51:13.854Z,4.50
2023-03-24T14:56:18.460Z,4.80
2023-03-24T15:01:22.298Z,5.20
2023-03-24T15:06:24.587Z,5.70
2023-03-24T15:11:31.028Z,6.70
2023-03-24T15:16:35.756Z,8.60
2023-03-24T15:21:39.836Z,9.00
2023-03-24T15:26:41.532Z,5.40
2023-03-24T15:31:43.451Z,5.90
2023-03-24T15:36:46.506Z,6.60
2023-03-24T15:41:52.879Z,6.50
2023-03-24T15:46:58.141Z,5.90
2023-03-24T15:52:02.869Z,19.30
2023-03-24T15:57:23.780Z,26.80
2023-03-24T16:02:33.391Z,22.30
2023-03-24T16:07:35.723Z,52.60
2023-03-24T16:12:38.146Z,35.60
2023-03-24T16:17:40.550Z,30.00
2023-03-24T16:22:42.393Z,9.50
2023-03-24T16:27:44.186Z,17.00
2023-03-24T16:32:46.239Z,8.20
2023-03-24T16:37:48.284Z,7.30
2023-03-24T16:42:50.088Z,9.30
2023-03-24T16:47:51.954Z,10.20
2023-03-24T16:52:53.940Z,14.90
2023-03-24T16:57:55.656Z,20.90
2023-03-24T17:03:00.005Z,16.50
2023-03-24T17:08:02.375Z,10.40
2023-03-24T17:13:04.141Z,10.60
2023-03-24T17:18:08.374Z,16.60
2023-03-24T17:23:12.966Z,22.90
2023-03-24T17:28:16.397Z,22.00
2023-03-24T17:33:18.449Z,19.50
2023-03-24T17:38:20.819Z,18.70
2023-03-24T17:43:22.560Z,16.10
2023-03-24T17:48:25.264Z,15.90
2023-03-24T17:53:27.038Z,16.50
2023-03-24T17:58:29.436Z,14.20
2023-03-24T18:03:31.175Z,13.70
2023-03-24T18:08:33.621Z,10.90
2023-03-24T18:13:35.492Z,24.40
2023-03-24T18:18:38.507Z,19.50
2023-03-24T18:23:40.372Z,18.80
2023-03-24T18:28:44.162Z,14.90
2023-03-24T18:33:48.125Z,16.00
2023-03-24T18:38:49.941Z,21.60
2023-03-24T18:43:51.711Z,19.00
2023-03-24T18:48:55.467Z,16.40
2023-03-24T18:53:58.743Z,19.60
2023-03-24T18:59:01.571Z,16.50
2023-03-24T19:04:03.672Z,15.30
2023-03-24T19:09:05.476Z,17.80
2023-03-24T19:14:07.290Z,17.70
2023-03-24T19:19:09.954Z,14.40
2023-03-24T19:24:12.087Z,15.60
2023-03-24T19:29:15.280Z,13.80
2023-03-24T19:34:17.863Z,12.00
2023-03-24T19:39:20.009Z,12.40
2023-03-24T19:44:22.558Z,10.70
2023-03-24T19:49:24.383Z,9.40
2023-03-24T19:54:26.198Z,9.70
2023-03-24T19:59:28.227Z,8.60
2023-03-24T20:04:29.965Z,8.10
2023-03-24T20:09:31.660Z,10.10
2023-03-24T20:14:33.733Z,10.60
2023-03-24T20:19:37.913Z,11.60
2023-03-24T20:24:39.865Z,9.60
2023-03-24T20:29:42.673Z,8.00
2023-03-24T20:34:44.448Z,10.60
2023-03-24T20:39:46.223Z,7.70
2023-03-24T20:44:48.005Z,6.00
2023-03-24T20:49:50.575Z,6.70
2023-03-24T20:54:55.288Z,8.00
2023-03-24T20:59:57.155Z,8.50
2023-03-24T21:04:58.858Z,7.80
2023-03-24T21:10:00.584Z,7.90
2023-03-24T21:15:05.281Z,5.80
2023-03-24T21:20:13.753Z,7.60
2023-03-24T21:25:15.668Z,7.10
2023-03-24T21:30:22.503Z,5.90
2023-03-24T21:35:25.462Z,5.20
2023-03-24T21:40:27.458Z,5.80
2023-03-24T21:45:32.365Z,5.90
2023-03-24T21:50:34.860Z,9.70
2023-03-24T21:55:36.703Z,7.10
2023-03-24T22:00:40.104Z,5.70
2023-03-24T22:05:43.044Z,6.40
2023-03-24T22:10:54.421Z,7.30
2023-03-24T22:15:58.464Z,6.00
2023-03-24T22:21:06.972Z,6.20
2023-03-24T22:26:14.608Z,4.90
2023-03-24T22:31:16.821Z,5.80
2023-03-24T22:36:18.860Z,4.20
2023-03-24T22:41:21.636Z,7.60
2023-03-24T22:46:24.528Z,5.40
2023-03-24T22:51:28.888Z,4.70
2023-03-24T22:56:30.649Z,3.60
2023-03-24T23:01:32.405Z,3.90
2023-03-24T23:06:34.645Z,4.20
2023-03-24T23:11:36.445Z,3.40
2023-03-24T23:16:38.669Z,3.60
2023-03-24T23:21:40.448Z,6.20
2023-03-24T23:26:42.123Z,9.40
2023-03-24T23:31:44.057Z,7.40
2023-03-24T23:36:49.912Z,7.00
2023-03-24T23:41:51.702Z,6.50
2023-03-24T23:46:53.589Z,6.20
2023-03-24T23:51:55.295Z,5.50
2023-03-24T23:56:57.069Z,6.10
